Time;durP1;ratioP1;P1;durP2;ratioP2;P2;SDS_P1;SDS_P2;PMS_P1;PMS_P2;Temp;Humidity;BMP_temperature;BMP_pressure;BME280_temperature;BME280_humidity;BME280_pressure;Samples;Min_cycle;Max_cycle;Signal;HPM_P1;HPM_P2
2023/07/26 00:01:07;;;;;;;2.83;2.10;;;17.90;99.90;;;;;;5035471;28;20591;-77
2023/07/26 00:03:33;;;;;;;2.20;2.07;;;17.90;99.90;;;;;;5036123;28;20202;-77
2023/07/26 00:06:00;;;;;;;2.70;2.10;;;17.90;99.90;;;;;;5036010;28;20179;-76
2023/07/26 00:08:26;;;;;;;3.23;2.00;;;17.90;99.90;;;;;;5040804;28;20187;-77
2023/07/26 00:10:52;;;;;;;1.80;1.70;;;17.90;99.90;;;;;;5022331;28;20181;-77
2023/07/26 00:13:18;;;;;;;2.27;2.07;;;17.90;99.90;;;;;;5036795;28;20180;-78
2023/07/26 00:15:44;;;;;;;2.40;2.07;;;17.80;99.90;;;;;;5018619;28;20200;-77
2023/07/26 00:18:10;;;;;;;2.13;2.03;;;17.80;99.90;;;;;;5018575;28;20216;-79
2023/07/26 00:20:36;;;;;;;2.10;2.00;;;17.70;99.90;;;;;;5035206;28;20194;-77
2023/07/26 00:23:03;;;;;;;2.83;2.27;;;17.70;99.90;;;;;;5035769;28;20200;-75
2023/07/26 00:25:29;;;;;;;2.43;2.23;;;17.60;99.90;;;;;;5036009;28;20218;-76
2023/07/26 00:27:55;;;;;;;3.53;2.47;;;17.70;99.90;;;;;;5035522;28;20184;-76
2023/07/26 00:30:20;;;;;;;2.30;2.10;;;17.70;99.90;;;;;;5036164;28;20176;-76
2023/07/26 00:32:46;;;;;;;2.37;2.17;;;17.70;99.90;;;;;;5035652;28;20172;-76
2023/07/26 00:35:25;;;;;;;2.63;2.43;;;17.80;99.90;;;;;;5036342;28;20224;-78
2023/07/26 00:37:51;;;;;;;2.20;2.03;;;17.80;99.90;;;;;;5044770;28;20228;-77
2023/07/26 00:40:17;;;;;;;2.40;2.20;;;17.80;99.90;;;;;;5048074;28;20176;-78
2023/07/26 00:42:43;;;;;;;2.30;2.20;;;17.80;99.90;;;;;;5046669;28;20213;-77
2023/07/26 00:45:09;;;;;;;4.23;2.23;;;17.90;99.90;;;;;;5036048;28;20227;-76
2023/07/26 00:47:37;;;;;;;2.27;2.17;;;17.90;99.90;;;;;;5039121;28;20579;-74
2023/07/26 00:50:04;;;;;;;2.20;2.10;;;17.90;99.90;;;;;;5038892;28;20172;-76
2023/07/26 00:52:33;;;;;;;3.00;2.10;;;17.80;99.90;;;;;;5035192;28;20169;-75
2023/07/26 00:55:02;;;;;;;2.47;2.10;;;17.80;99.90;;;;;;5039013;28;20693;-76
2023/07/26 00:57:29;;;;;;;2.57;2.37;;;17.80;99.90;;;;;;5038373;28;20215;-80
2023/07/26 00:59:57;;;;;;;3.67;2.03;;;17.80;99.90;;;;;;5022280;28;20194;-78
2023/07/26 01:02:25;;;;;;;2.67;2.40;;;17.70;99.90;;;;;;5005584;28;20180;-78
2023/07/26 01:04:52;;;;;;;1.97;1.87;;;17.70;99.90;;;;;;5022706;28;20199;-77
2023/07/26 01:07:32;;;;;;;2.30;2.10;;;17.70;99.90;;;;;;5042805;28;20198;-78
2023/07/26 01:10:24;;;;;;;1.87;1.77;;;17.80;99.90;;;;;;5040969;28;20165;-75
2023/07/26 01:13:10;;;;;;;1.93;1.70;;;17.70;99.90;;;;;;5040103;28;20165;-79
2023/07/26 01:15:38;;;;;;;1.83;1.53;;;17.60;99.90;;;;;;5040380;28;20233;-78
2023/07/26 01:18:15;;;;;;;2.10;1.97;;;17.60;99.90;;;;;;5039966;28;20266;-77
2023/07/26 01:20:41;;;;;;;2.50;1.80;;;17.40;99.90;;;;;;5040138;28;20173;-77
2023/07/26 01:23:08;;;;;;;1.77;1.67;;;17.40;99.90;;;;;;5021559;28;20212;-78
2023/07/26 01:25:34;;;;;;;1.80;1.70;;;17.40;99.90;;;;;;5040585;28;20579;-79
2023/07/26 01:28:00;;;;;;;2.10;2.00;;;17.40;99.90;;;;;;5043037;28;20176;-78
2023/07/26 01:30:29;;;;;;;2.30;2.10;;;17.30;99.90;;;;;;5039030;28;20299;-76
2023/07/26 01:33:01;;;;;;;2.90;2.30;;;17.10;99.90;;;;;;5031407;28;20183;-79
2023/07/26 01:35:29;;;;;;;2.10;2.00;;;17.10;99.90;;;;;;5021630;28;20231;-76
2023/07/26 01:37:55;;;;;;;5.50;1.83;;;17.10;99.90;;;;;;5038216;28;20276;-74
2023/07/26 01:40:22;;;;;;;2.57;2.20;;;16.90;99.90;;;;;;5037943;28;20669;-80
2023/07/26 01:42:49;;;;;;;2.13;2.03;;;17.00;99.90;;;;;;5019268;28;20567;-77
2023/07/26 01:45:16;;;;;;;2.50;2.40;;;17.10;99.90;;;;;;5018952;28;20566;-75
2023/07/26 01:47:42;;;;;;;2.43;2.33;;;16.90;99.90;;;;;;5036436;28;20253;-79
2023/07/26 01:50:09;;;;;;;3.30;2.60;;;16.80;99.90;;;;;;5036583;28;20212;-77
2023/07/26 01:52:34;;;;;;;2.70;2.50;;;16.90;99.90;;;;;;5036122;28;20186;-79
2023/07/26 01:55:01;;;;;;;2.50;2.40;;;17.00;99.90;;;;;;5035076;28;20188;-78
2023/07/26 01:57:27;;;;;;;2.30;2.20;;;17.10;99.90;;;;;;5035488;28;20272;-77
2023/07/26 01:59:53;;;;;;;2.20;2.10;;;17.20;99.90;;;;;;5034007;28;20183;-77
2023/07/26 02:02:19;;;;;;;2.40;2.30;;;17.20;99.90;;;;;;5035217;28;20268;-80
2023/07/26 02:04:46;;;;;;;2.17;2.07;;;17.10;99.90;;;;;;5035201;28;20222;-78
2023/07/26 02:07:17;;;;;;;2.23;2.13;;;17.10;99.90;;;;;;5017528;28;20187;-77
2023/07/26 02:09:43;;;;;;;2.13;1.70;;;17.10;99.90;;;;;;5034663;28;20161;-78
2023/07/26 02:12:09;;;;;;;1.93;1.83;;;17.00;99.90;;;;;;5017470;28;20463;-76
2023/07/26 02:14:34;;;;;;;2.00;1.87;;;17.00;99.90;;;;;;5046699;28;20211;-77
2023/07/26 02:17:00;;;;;;;2.27;1.77;;;17.10;99.90;;;;;;5039825;28;20184;-76
2023/07/26 02:19:26;;;;;;;3.23;2.53;;;17.10;99.90;;;;;;5034966;28;20222;-77
2023/07/26 02:21:52;;;;;;;1.83;1.73;;;17.00;99.90;;;;;;5034939;28;20183;-77
2023/07/26 02:24:17;;;;;;;1.80;1.70;;;17.00;99.90;;;;;;5039692;28;20698;-76
2023/07/26 02:26:43;;;;;;;1.90;1.80;;;17.00;99.90;;;;;;5045678;28;20631;-79
2023/07/26 02:29:09;;;;;;;2.07;1.90;;;17.10;99.90;;;;;;5043128;28;20188;-78
2023/07/26 02:31:34;;;;;;;2.10;2.00;;;17.10;99.90;;;;;;5034836;28;20178;-75
2023/07/26 02:34:00;;;;;;;1.90;1.80;;;17.00;99.90;;;;;;5035309;28;20179;-78
2023/07/26 02:36:26;;;;;;;2.00;1.90;;;17.00;99.90;;;;;;5036632;28;20203;-75
2023/07/26 02:38:51;;;;;;;2.03;1.93;;;17.00;99.90;;;;;;5042071;28;20265;-80
2023/07/26 02:41:17;;;;;;;2.30;2.20;;;16.90;99.90;;;;;;5040169;28;20179;-78
2023/07/26 02:43:43;;;;;;;2.80;2.03;;;17.00;99.90;;;;;;5036906;28;20263;-78
2023/07/26 02:46:10;;;;;;;2.10;2.00;;;16.90;99.90;;;;;;5034503;28;20179;-76
2023/07/26 02:48:36;;;;;;;2.50;2.13;;;16.90;99.90;;;;;;5035359;28;20619;-78
2023/07/26 02:51:02;;;;;;;2.27;1.80;;;16.90;99.90;;;;;;5039517;28;20176;-74
2023/07/26 02:53:28;;;;;;;2.00;1.90;;;16.70;99.90;;;;;;5036410;28;20705;-79
2023/07/26 02:55:54;;;;;;;2.43;2.20;;;16.70;99.90;;;;;;5035496;28;20219;-77
2023/07/26 02:58:20;;;;;;;2.00;1.90;;;16.70;99.90;;;;;;5034870;28;20644;-77
2023/07/26 03:00:45;;;;;;;2.40;2.30;;;16.50;99.90;;;;;;5035172;28;20175;-78
2023/07/26 03:03:11;;;;;;;1.90;1.80;;;16.50;99.90;;;;;;5018644;28;20219;-77
2023/07/26 03:05:37;;;;;;;2.10;2.00;;;16.50;99.90;;;;;;5018275;28;20176;-78
2023/07/26 03:08:04;;;;;;;2.50;2.40;;;16.50;99.90;;;;;;5047915;28;20194;-75
2023/07/26 03:10:29;;;;;;;2.03;1.93;;;16.50;99.90;;;;;;5051393;28;20226;-78
2023/07/26 03:12:55;;;;;;;2.23;2.13;;;16.50;99.90;;;;;;5041337;28;20205;-78
2023/07/26 03:15:22;;;;;;;2.00;1.90;;;16.50;99.90;;;;;;5020857;28;20247;-76
2023/07/26 03:17:48;;;;;;;2.03;1.93;;;16.40;99.90;;;;;;5035402;28;20175;-79
2023/07/26 03:20:14;;;;;;;2.00;1.90;;;16.50;99.90;;;;;;5034846;28;20728;-78
2023/07/26 03:22:39;;;;;;;2.10;2.00;;;16.50;99.90;;;;;;5016770;28;20204;-78
2023/07/26 03:25:06;;;;;;;2.00;1.90;;;16.50;99.90;;;;;;5034911;28;20206;-78
2023/07/26 03:27:31;;;;;;;2.00;1.80;;;16.40;99.90;;;;;;5035192;28;20205;-79
2023/07/26 03:29:57;;;;;;;1.60;1.60;;;16.30;99.90;;;;;;5017535;28;20184;-77
2023/07/26 03:32:23;;;;;;;2.10;1.97;;;16.30;99.90;;;;;;5035033;28;20170;-77
2023/07/26 03:34:48;;;;;;;2.27;1.70;;;16.30;99.90;;;;;;5026420;28;20815;-79
2023/07/26 03:37:14;;;;;;;2.00;1.90;;;16.20;99.90;;;;;;5015533;28;20263;-78
2023/07/26 03:39:40;;;;;;;1.80;1.70;;;16.20;99.90;;;;;;5014659;28;20223;-75
2023/07/26 03:42:06;;;;;;;2.47;2.27;;;16.20;99.90;;;;;;5015469;28;20210;-78
2023/07/26 03:44:31;;;;;;;2.67;2.20;;;16.20;99.90;;;;;;5015478;28;20219;-78
2023/07/26 03:46:57;;;;;;;2.80;2.70;;;16.10;99.90;;;;;;4998337;28;20185;-77
2023/07/26 03:49:25;;;;;;;2.83;2.63;;;16.10;99.90;;;;;;5024982;28;20185;-78
2023/07/26 03:51:51;;;;;;;2.50;2.40;;;16.10;99.90;;;;;;5018452;28;20643;-76
2023/07/26 03:54:17;;;;;;;2.80;2.60;;;16.10;99.90;;;;;;5016360;28;20218;-81
2023/07/26 03:56:42;;;;;;;2.83;2.63;;;16.00;99.90;;;;;;5016929;28;20185;-78
2023/07/26 03:59:08;;;;;;;2.93;2.50;;;15.90;99.90;;;;;;5020410;28;20204;-75
2023/07/26 04:01:34;;;;;;;2.53;2.40;;;15.90;99.90;;;;;;5026570;28;20188;-75
2023/07/26 04:03:59;;;;;;;2.60;2.40;;;15.90;99.90;;;;;;5021321;28;20212;-78
2023/07/26 04:06:25;;;;;;;3.20;2.30;;;15.90;99.90;;;;;;5018432;28;20173;-76
2023/07/26 04:08:51;;;;;;;2.80;1.93;;;16.00;99.90;;;;;;5023494;28;20204;-77
2023/07/26 04:11:16;;;;;;;2.00;1.90;;;16.00;99.90;;;;;;5027863;28;20172;-74
2023/07/26 04:13:42;;;;;;;2.20;2.10;;;16.00;99.90;;;;;;5010695;28;20200;-76
2023/07/26 04:16:19;;;;;;;2.53;2.37;;;16.10;99.90;;;;;;5027073;28;20187;-77
2023/07/26 04:18:45;;;;;;;2.30;2.13;;;16.20;99.90;;;;;;5016877;28;20183;-76
2023/07/26 04:21:17;;;;;;;2.50;2.30;;;16.30;99.90;;;;;;5032601;28;20216;-76
2023/07/26 04:23:44;;;;;;;2.47;2.37;;;16.30;99.90;;;;;;5028610;28;20209;-79
2023/07/26 04:26:10;;;;;;;2.60;2.40;;;16.30;99.90;;;;;;5020835;28;20169;-79
2023/07/26 04:28:36;;;;;;;2.33;2.23;;;16.40;99.90;;;;;;5020041;28;20177;-78
2023/07/26 04:31:02;;;;;;;2.50;2.23;;;16.40;99.90;;;;;;5017578;28;20169;-77
2023/07/26 04:33:28;;;;;;;2.60;2.37;;;16.40;99.90;;;;;;5019596;28;20171;-77
2023/07/26 04:35:54;;;;;;;2.73;2.63;;;16.40;99.90;;;;;;5035794;28;20639;-76
2023/07/26 04:38:20;;;;;;;2.63;2.53;;;16.40;99.90;;;;;;5038887;28;20214;-79
2023/07/26 04:40:47;;;;;;;2.73;2.53;;;16.50;99.90;;;;;;5039024;28;20165;-76
2023/07/26 04:43:19;;;;;;;2.70;2.50;;;16.40;99.90;;;;;;5022818;28;20212;-78
2023/07/26 04:45:46;;;;;;;2.33;2.23;;;16.40;99.90;;;;;;5046630;28;20260;-77
2023/07/26 04:48:13;;;;;;;2.83;2.60;;;16.50;99.90;;;;;;5053439;28;20319;-78
2023/07/26 04:50:39;;;;;;;2.50;2.23;;;16.60;99.90;;;;;;5037912;28;20173;-77
2023/07/26 04:53:05;;;;;;;3.93;2.60;;;16.50;99.90;;;;;;5037339;28;20174;-78
2023/07/26 04:55:31;;;;;;;2.77;2.40;;;16.60;99.90;;;;;;5037372;28;20573;-79
2023/07/26 04:57:58;;;;;;;2.50;2.30;;;16.60;99.90;;;;;;5040196;28;20223;-76
2023/07/26 05:00:23;;;;;;;2.50;2.30;;;16.60;99.90;;;;;;5040037;28;20207;-78
2023/07/26 05:02:49;;;;;;;2.17;2.07;;;16.60;99.90;;;;;;5020411;28;20212;-78
2023/07/26 05:05:15;;;;;;;2.50;2.40;;;16.70;99.90;;;;;;5037385;28;20177;-77
2023/07/26 05:07:41;;;;;;;3.00;2.27;;;16.70;99.90;;;;;;5037253;28;20176;-79
2023/07/26 05:10:07;;;;;;;2.33;2.10;;;16.70;99.90;;;;;;5037557;28;20252;-78
2023/07/26 05:12:33;;;;;;;2.47;2.27;;;16.70;99.90;;;;;;5019371;28;20204;-78
2023/07/26 05:14:58;;;;;;;2.53;2.43;;;16.70;99.90;;;;;;5019725;28;20204;-78
2023/07/26 05:17:24;;;;;;;2.23;2.13;;;16.70;99.90;;;;;;5037819;28;20179;-76
2023/07/26 05:19:50;;;;;;;2.07;1.97;;;16.80;99.90;;;;;;5019117;28;20185;-76
2023/07/26 05:22:16;;;;;;;2.30;2.10;;;16.80;99.90;;;;;;5037219;28;20555;-77
2023/07/26 05:24:41;;;;;;;3.90;2.47;;;16.90;99.90;;;;;;5037530;28;20245;-75
2023/07/26 05:27:07;;;;;;;1.97;1.87;;;16.90;99.90;;;;;;5036881;28;20167;-78
2023/07/26 05:29:33;;;;;;;2.10;2.00;;;16.80;99.90;;;;;;5037076;28;20177;-78
2023/07/26 05:31:58;;;;;;;2.10;1.90;;;16.80;99.90;;;;;;5038449;28;20196;-75
2023/07/26 05:34:24;;;;;;;3.83;2.47;;;16.70;99.90;;;;;;5042052;28;20290;-76
2023/07/26 05:36:51;;;;;;;2.60;2.50;;;16.70;99.90;;;;;;5056185;28;20187;-76
2023/07/26 05:39:16;;;;;;;3.27;2.87;;;16.90;99.90;;;;;;5038185;28;20675;-78
2023/07/26 05:41:42;;;;;;;2.77;2.67;;;16.90;99.90;;;;;;5037134;28;20180;-78
2023/07/26 05:44:08;;;;;;;2.70;2.57;;;16.80;99.90;;;;;;5035266;28;20203;-79
2023/07/26 05:46:34;;;;;;;2.60;2.50;;;16.70;99.90;;;;;;5035473;28;20172;-79
2023/07/26 05:49:00;;;;;;;2.73;2.40;;;16.60;99.90;;;;;;5035502;28;20182;-78
2023/07/26 05:51:26;;;;;;;2.80;2.60;;;16.70;99.90;;;;;;5035187;28;20172;-78
2023/07/26 05:53:51;;;;;;;2.90;2.70;;;16.60;99.90;;;;;;5035484;28;20265;-76
2023/07/26 05:56:17;;;;;;;2.30;2.20;;;16.60;99.90;;;;;;5035600;28;20230;-78
2023/07/26 05:58:43;;;;;;;2.57;2.37;;;16.60;99.90;;;;;;5035017;28;20184;-78
2023/07/26 06:01:09;;;;;;;3.37;2.37;;;16.60;99.90;;;;;;5034898;28;20552;-78
2023/07/26 06:03:35;;;;;;;3.17;2.50;;;16.60;99.90;;;;;;5035160;28;20207;-76
2023/07/26 06:06:01;;;;;;;3.37;2.40;;;16.70;99.90;;;;;;5035007;28;20631;-80
2023/07/26 06:08:27;;;;;;;2.50;2.30;;;16.70;99.90;;;;;;5035116;28;20173;-80
2023/07/26 06:10:52;;;;;;;4.13;1.90;;;16.80;99.90;;;;;;5035011;28;20186;-78
2023/07/26 06:13:19;;;;;;;4.07;2.40;;;16.90;99.90;;;;;;5035297;28;20185;-77
2023/07/26 06:15:44;;;;;;;3.23;2.10;;;17.00;99.90;;;;;;5036572;28;20180;-77
2023/07/26 06:18:10;;;;;;;2.27;1.83;;;17.20;99.90;;;;;;5018929;28;20245;-78
2023/07/26 06:20:36;;;;;;;2.10;1.90;;;17.20;99.90;;;;;;5038045;28;20226;-78
2023/07/26 06:23:01;;;;;;;3.77;2.37;;;17.20;99.90;;;;;;5041838;28;20188;-78
2023/07/26 06:25:27;;;;;;;3.30;2.40;;;17.00;99.90;;;;;;5057423;28;20171;-77
2023/07/26 06:27:53;;;;;;;2.33;2.23;;;16.90;99.90;;;;;;5050844;28;20183;-77
2023/07/26 06:30:19;;;;;;;2.27;2.10;;;16.80;99.90;;;;;;5035016;28;20177;-77
2023/07/26 06:32:44;;;;;;;2.43;2.23;;;16.80;99.90;;;;;;5034969;28;20215;-78
2023/07/26 06:35:10;;;;;;;2.80;2.60;;;16.80;99.90;;;;;;5005381;28;20229;-78
2023/07/26 06:37:36;;;;;;;2.43;2.23;;;16.80;99.90;;;;;;5014515;28;20255;-78
2023/07/26 06:40:02;;;;;;;2.70;2.57;;;16.90;99.90;;;;;;5013975;28;20586;-77
2023/07/26 06:42:28;;;;;;;2.60;2.50;;;17.00;99.90;;;;;;5014452;28;20219;-76
2023/07/26 06:44:54;;;;;;;2.40;2.30;;;17.10;99.90;;;;;;5013612;28;20178;-75
2023/07/26 06:47:20;;;;;;;2.97;2.73;;;17.30;99.90;;;;;;5014829;28;20175;-77
2023/07/26 06:49:45;;;;;;;2.50;2.40;;;17.40;99.90;;;;;;5015333;28;20179;-79
2023/07/26 06:52:11;;;;;;;3.20;2.20;;;17.40;99.90;;;;;;5016532;28;20165;-75
2023/07/26 06:54:37;;;;;;;2.37;2.17;;;17.50;99.90;;;;;;5019488;28;20169;-77
2023/07/26 06:57:03;;;;;;;2.27;2.07;;;17.40;99.90;;;;;;5015141;28;20176;-76
2023/07/26 06:59:30;;;;;;;2.30;2.20;;;17.50;99.90;;;;;;5021844;28;20181;-78
2023/07/26 07:01:55;;;;;;;2.30;2.20;;;17.60;99.90;;;;;;5019808;28;20231;-77
2023/07/26 07:04:21;;;;;;;2.10;2.00;;;17.70;99.90;;;;;;5015239;28;20604;-79
2023/07/26 07:06:47;;;;;;;2.17;2.07;;;17.50;99.90;;;;;;5015293;28;20205;-76
2023/07/26 07:09:13;;;;;;;3.63;2.20;;;17.60;99.90;;;;;;5001813;28;20640;-78
2023/07/26 07:11:41;;;;;;;2.60;2.50;;;17.60;99.90;;;;;;5028756;28;20173;-78
2023/07/26 07:14:07;;;;;;;2.67;2.00;;;17.60;99.90;;;;;;5000513;28;20188;-78
2023/07/26 07:16:33;;;;;;;2.60;2.10;;;17.80;99.90;;;;;;5015421;28;20184;-76
2023/07/26 07:18:59;;;;;;;2.10;2.00;;;17.90;99.90;;;;;;5014211;28;20180;-79
2023/07/26 07:21:24;;;;;;;2.03;1.93;;;17.90;99.90;;;;;;5013677;28;20189;-79
2023/07/26 07:23:51;;;;;;;2.10;2.00;;;17.90;99.90;;;;;;5013670;28;20664;-75
2023/07/26 07:26:19;;;;;;;3.40;1.93;;;18.10;99.90;;;;;;5014410;28;20228;-75
2023/07/26 07:28:45;;;;;;;1.50;1.50;;;18.20;99.90;;;;;;5014255;28;20212;-78
2023/07/26 07:31:11;;;;;;;1.50;1.40;;;18.20;99.90;;;;;;5013404;28;20208;-78
2023/07/26 07:33:37;;;;;;;1.40;1.30;;;18.30;99.90;;;;;;5013568;28;20606;-77
2023/07/26 07:36:04;;;;;;;1.20;1.20;;;18.30;99.90;;;;;;5029928;28;20259;-77
2023/07/26 07:38:30;;;;;;;1.07;1.07;;;18.40;99.90;;;;;;5034419;28;20267;-78
2023/07/26 07:40:56;;;;;;;1.20;1.20;;;18.50;99.90;;;;;;5032820;28;20176;-77
2023/07/26 07:43:22;;;;;;;1.47;1.37;;;18.40;99.90;;;;;;5033110;28;20682;-77
2023/07/26 07:45:48;;;;;;;1.20;1.20;;;18.40;99.90;;;;;;5033232;28;20620;-78
2023/07/26 07:48:14;;;;;;;1.17;1.10;;;18.10;99.90;;;;;;5033309;28;20246;-78
2023/07/26 07:50:39;;;;;;;1.40;1.40;;;18.10;99.90;;;;;;5033497;28;20274;-77
2023/07/26 07:53:05;;;;;;;1.07;1.07;;;18.10;99.90;;;;;;5034143;28;20641;-78
2023/07/26 07:55:31;;;;;;;1.00;1.00;;;18.10;99.90;;;;;;5014917;28;20184;-77
2023/07/26 07:58:01;;;;;;;0.97;0.97;;;18.20;99.90;;;;;;5037122;28;20184;-77
2023/07/26 08:00:27;;;;;;;1.07;1.07;;;18.20;99.90;;;;;;5020009;28;20205;-78
2023/07/26 08:02:53;;;;;;;1.43;1.43;;;18.30;99.90;;;;;;5049334;28;20274;-78
2023/07/26 08:05:19;;;;;;;0.97;0.97;;;18.40;99.90;;;;;;5050826;28;20180;-78
2023/07/26 08:07:44;;;;;;;0.90;0.90;;;18.40;99.90;;;;;;5044181;28;20181;-77
2023/07/26 08:10:10;;;;;;;1.27;0.80;;;18.40;99.90;;;;;;5037450;28;20229;-77
2023/07/26 08:12:36;;;;;;;1.00;1.00;;;18.60;99.90;;;;;;5037136;28;20619;-78
2023/07/26 08:15:02;;;;;;;1.53;1.30;;;18.80;99.90;;;;;;5039414;28;20261;-78
2023/07/26 08:17:27;;;;;;;1.03;0.87;;;18.90;99.90;;;;;;5039400;28;20657;-79
2023/07/26 08:19:53;;;;;;;1.20;1.10;;;19.00;99.90;;;;;;5037196;28;20251;-77
2023/07/26 08:22:20;;;;;;;1.10;1.00;;;19.00;99.90;;;;;;5037380;28;20219;-77
2023/07/26 08:24:46;;;;;;;1.47;1.17;;;19.10;99.90;;;;;;5037416;28;20204;-77
2023/07/26 08:27:12;;;;;;;1.30;1.30;;;19.30;99.90;;;;;;5038272;28;20172;-78
2023/07/26 08:29:39;;;;;;;1.07;1.07;;;19.40;99.90;;;;;;5038017;28;20271;-79
2023/07/26 08:32:05;;;;;;;1.13;0.97;;;19.60;99.90;;;;;;5020657;28;20177;-76
2023/07/26 08:34:31;;;;;;;1.00;1.00;;;19.70;99.90;;;;;;5028197;28;20212;-76
2023/07/26 08:36:57;;;;;;;1.10;0.77;;;19.60;99.90;;;;;;5029424;28;20245;-78
2023/07/26 08:39:23;;;;;;;1.80;0.90;;;19.70;99.90;;;;;;5037469;28;20235;-78
2023/07/26 08:41:49;;;;;;;1.00;1.00;;;19.80;99.90;;;;;;5019191;28;20636;-75
2023/07/26 08:44:15;;;;;;;0.97;0.97;;;19.70;99.90;;;;;;5037674;28;20226;-77
2023/07/26 08:46:45;;;;;;;0.80;0.80;;;19.80;99.90;;;;;;5033246;28;20187;-78
2023/07/26 08:49:11;;;;;;;0.93;0.93;;;19.80;99.60;;;;;;5024956;28;20220;-76
2023/07/26 08:51:39;;;;;;;0.93;0.93;;;19.70;99.60;;;;;;5040393;28;20175;-81
2023/07/26 08:54:06;;;;;;;1.10;1.10;;;19.60;99.70;;;;;;5037793;28;20267;-78
2023/07/26 08:56:35;;;;;;;1.00;1.00;;;19.70;98.90;;;;;;5036659;28;20184;-78
2023/07/26 08:59:00;;;;;;;0.73;0.73;;;19.60;98.50;;;;;;5036444;28;20195;-77
2023/07/26 09:01:27;;;;;;;0.97;0.97;;;19.60;99.20;;;;;;5036191;28;20632;-78
2023/07/26 09:03:53;;;;;;;1.33;0.90;;;19.60;99.00;;;;;;5018429;28;20619;-77
2023/07/26 09:06:19;;;;;;;1.07;1.07;;;19.50;98.80;;;;;;5035761;28;20560;-78
2023/07/26 09:08:46;;;;;;;0.80;0.80;;;19.60;99.20;;;;;;5035444;28;20215;-77
2023/07/26 09:11:25;;;;;;;0.80;0.77;;;19.50;98.30;;;;;;5035577;28;20231;-79
2023/07/26 09:13:56;;;;;;;1.00;1.00;;;19.60;98.60;;;;;;5035922;28;20180;-76
2023/07/26 09:16:22;;;;;;;0.90;0.90;;;19.80;98.50;;;;;;5036017;28;20180;-79
2023/07/26 09:18:57;;;;;;;1.10;0.80;;;19.90;97.80;;;;;;5017638;28;20181;-77
2023/07/26 09:21:40;;;;;;;0.60;0.60;;;20.00;97.20;;;;;;5034437;28;20710;-77
2023/07/26 09:24:06;;;;;;;0.87;0.87;;;20.00;96.70;;;;;;5052266;28;20189;-77
2023/07/26 09:26:42;;;;;;;0.80;0.80;;;20.30;97.40;;;;;;5046305;28;20667;-78
2023/07/26 09:29:15;;;;;;;0.80;0.77;;;20.60;96.40;;;;;;5037073;28;20172;-77
2023/07/26 09:31:43;;;;;;;1.30;1.20;;;20.90;96.70;;;;;;5037543;28;20237;-76
2023/07/26 09:34:18;;;;;;;0.50;0.50;;;21.00;95.40;;;;;;5032174;28;20180;-78
2023/07/26 09:36:47;;;;;;;0.70;0.70;;;20.80;95.70;;;;;;5055427;28;20169;-76
2023/07/26 09:39:14;;;;;;;0.60;0.60;;;20.90;95.80;;;;;;5052266;28;20176;-78
2023/07/26 09:41:40;;;;;;;0.80;0.80;;;20.90;96.30;;;;;;5056846;28;20161;-80
2023/07/26 09:44:06;;;;;;;0.70;0.70;;;21.00;96.30;;;;;;5052344;28;20347;-79
2023/07/26 09:47:02;;;;;;;0.80;0.80;;;21.20;96.10;;;;;;5039023;28;20168;-79
2023/07/26 09:49:29;;;;;;;1.00;1.00;;;21.30;95.60;;;;;;5014895;28;20189;-77
2023/07/26 09:51:58;;;;;;;0.93;0.93;;;21.50;96.30;;;;;;5017529;28;20180;-77
2023/07/26 09:54:32;;;;;;;1.10;0.70;;;21.50;95.00;;;;;;5018019;28;20586;-78
2023/07/26 09:56:58;;;;;;;0.67;0.67;;;21.30;94.30;;;;;;5036524;28;20165;-78
2023/07/26 09:59:26;;;;;;;0.67;0.67;;;21.40;94.00;;;;;;5035104;28;20179;-77
2023/07/26 10:01:53;;;;;;;0.77;0.77;;;21.30;94.50;;;;;;5034791;28;20255;-77
2023/07/26 10:04:39;;;;;;;0.70;0.70;;;21.20;94.40;;;;;;5035141;28;20288;-76
2023/07/26 10:07:11;;;;;;;0.63;0.63;;;21.20;94.50;;;;;;5017966;28;20659;-78
2023/07/26 10:09:43;;;;;;;0.60;0.60;;;21.00;94.10;;;;;;5036585;28;20179;-75
2023/07/26 10:12:10;;;;;;;0.80;0.80;;;21.00;94.30;;;;;;5052606;28;20152;-78
2023/07/26 10:14:36;;;;;;;0.63;0.63;;;21.00;94.20;;;;;;5038261;28;20180;-78
2023/07/26 10:17:04;;;;;;;0.80;0.80;;;20.70;94.10;;;;;;5036338;28;20233;-78
2023/07/26 10:19:31;;;;;;;0.80;0.80;;;20.60;94.00;;;;;;5034277;28;20268;-77
2023/07/26 10:21:58;;;;;;;0.70;0.70;;;20.60;94.80;;;;;;5041959;28;20165;-79
2023/07/26 10:24:25;;;;;;;0.80;0.80;;;20.50;94.40;;;;;;5048974;28;20223;-77
2023/07/26 10:26:53;;;;;;;0.70;0.70;;;20.50;94.50;;;;;;5037160;28;20256;-77
2023/07/26 10:29:22;;;;;;;0.70;0.70;;;20.60;94.60;;;;;;5035061;28;20169;-77
2023/07/26 10:32:06;;;;;;;0.80;0.80;;;20.50;95.30;;;;;;5035129;28;20207;-78
2023/07/26 10:34:32;;;;;;;1.00;0.70;;;20.60;94.50;;;;;;5034579;28;20687;-78
2023/07/26 10:36:57;;;;;;;0.70;0.70;;;20.50;94.00;;;;;;5034292;28;20194;-77
2023/07/26 10:39:34;;;;;;;0.73;0.73;;;20.40;94.00;;;;;;5034340;28;20204;-78
2023/07/26 10:42:02;;;;;;;0.90;0.90;;;20.60;94.10;;;;;;5034503;28;20218;-78
2023/07/26 10:44:28;;;;;;;0.70;0.70;;;20.60;94.10;;;;;;5016456;28;20207;-77
2023/07/26 10:47:03;;;;;;;0.80;0.80;;;20.50;93.80;;;;;;5034224;28;20730;-77
2023/07/26 10:49:33;;;;;;;0.83;0.70;;;20.50;94.60;;;;;;5034117;28;20514;-77
2023/07/26 10:52:04;;;;;;;0.70;0.70;;;20.50;94.00;;;;;;5034948;28;20262;-79
2023/07/26 10:54:44;;;;;;;0.80;0.80;;;20.70;94.50;;;;;;5034705;28;20231;-78
2023/07/26 10:57:20;;;;;;;0.80;0.80;;;20.80;94.60;;;;;;5034358;28;20161;-75
2023/07/26 11:00:09;;;;;;;0.60;0.60;;;20.80;94.00;;;;;;5034853;28;20564;-78
2023/07/26 11:02:48;;;;;;;1.60;0.73;;;20.80;93.60;;;;;;5033577;28;20639;-77
2023/07/26 11:05:19;;;;;;;1.23;0.80;;;20.80;94.10;;;;;;5034451;28;20173;-78
2023/07/26 11:08:05;;;;;;;0.87;0.87;;;21.00;93.60;;;;;;5033899;28;20516;-77
2023/07/26 11:10:38;;;;;;;0.90;0.90;;;21.10;93.10;;;;;;5052356;28;20161;-76
2023/07/26 11:13:10;;;;;;;0.90;0.90;;;21.00;92.30;;;;;;5038131;28;20256;-76
2023/07/26 11:15:43;;;;;;;1.30;1.17;;;20.90;93.00;;;;;;5034613;28;20242;-76
2023/07/26 11:18:10;;;;;;;0.70;0.70;;;20.80;92.20;;;;;;5034639;28;20537;-76
2023/07/26 11:20:40;;;;;;;0.63;0.63;;;20.60;92.80;;;;;;5048615;28;20204;-77
2023/07/26 11:23:16;;;;;;;0.73;0.73;;;20.50;92.80;;;;;;5055576;28;20196;-77
2023/07/26 11:25:42;;;;;;;0.80;0.80;;;20.40;92.60;;;;;;5039977;28;20233;-77
2023/07/26 11:28:08;;;;;;;0.90;0.90;;;20.40;93.00;;;;;;5033916;28;20562;-77
2023/07/26 11:30:39;;;;;;;0.80;0.80;;;20.50;93.50;;;;;;5033625;28;20187;-77
2023/07/26 11:33:05;;;;;;;1.10;1.00;;;20.50;93.50;;;;;;5033417;28;20623;-78
2023/07/26 11:35:40;;;;;;;0.47;0.47;;;20.50;93.60;;;;;;5033319;28;20225;-77
2023/07/26 11:38:06;;;;;;;0.70;0.70;;;20.50;93.60;;;;;;5033512;28;20163;-75
2023/07/26 11:40:39;;;;;;;0.83;0.83;;;20.50;93.20;;;;;;5035847;28;20246;-77
2023/07/26 11:43:06;;;;;;;0.53;0.53;;;20.60;93.60;;;;;;5035262;28;20235;-78
2023/07/26 11:45:37;;;;;;;0.70;0.70;;;20.60;92.40;;;;;;5033715;28;20180;-78
2023/07/26 11:48:06;;;;;;;0.50;0.50;;;20.30;92.30;;;;;;5046308;28;20137;-77
2023/07/26 11:50:31;;;;;;;0.90;0.90;;;20.20;92.40;;;;;;5035496;28;20183;-78
2023/07/26 11:53:11;;;;;;;0.70;0.70;;;20.10;92.80;;;;;;5033666;28;20181;-77
2023/07/26 11:55:41;;;;;;;0.80;0.80;;;20.10;93.20;;;;;;5033809;28;20161;-77
2023/07/26 11:58:08;;;;;;;0.70;0.70;;;20.10;92.40;;;;;;5039550;28;20165;-76
2023/07/26 12:00:42;;;;;;;0.60;0.60;;;20.20;93.40;;;;;;5053350;28;20673;-77
2023/07/26 12:03:08;;;;;;;0.77;0.77;;;20.10;92.10;;;;;;5041285;28;20676;-78
2023/07/26 12:06:09;;;;;;;0.70;0.70;;;20.00;92.20;;;;;;5020581;28;20210;-76
2023/07/26 12:08:37;;;;;;;0.80;0.80;;;20.00;92.40;;;;;;5019842;28;20280;-77
2023/07/26 12:11:06;;;;;;;0.60;0.60;;;20.00;92.60;;;;;;5018253;28;20261;-77
2023/07/26 12:13:40;;;;;;;0.97;0.97;;;20.00;92.40;;;;;;5018343;28;20195;-76
2023/07/26 12:16:05;;;;;;;0.80;0.80;;;20.20;92.80;;;;;;5035656;28;20176;-79
2023/07/26 12:18:31;;;;;;;2.93;0.77;;;20.00;92.30;;;;;;5034775;28;20169;-79
2023/07/26 12:21:09;;;;;;;0.67;0.67;;;20.10;92.40;;;;;;5034004;28;20236;-79
2023/07/26 12:24:03;;;;;;;1.03;1.00;;;20.20;92.90;;;;;;5033764;28;20214;-75
2023/07/26 12:26:37;;;;;;;0.70;0.70;;;20.20;92.30;;;;;;5015736;28;20212;-77
2023/07/26 12:29:05;;;;;;;0.70;0.70;;;20.30;92.10;;;;;;5015833;28;20215;-77
2023/07/26 12:31:34;;;;;;;0.40;0.40;;;20.50;92.10;;;;;;5034817;28;20296;-78
2023/07/26 12:34:27;;;;;;;0.63;0.63;;;20.50;91.20;;;;;;5033124;28;20183;-77
2023/07/26 12:36:56;;;;;;;0.60;0.60;;;20.60;92.00;;;;;;5010554;28;20208;-78
2023/07/26 12:39:22;;;;;;;0.80;0.80;;;20.70;92.10;;;;;;5013804;28;20549;-75
2023/07/26 12:41:48;;;;;;;0.60;0.60;;;20.80;91.70;;;;;;5013283;28;20180;-75
2023/07/26 12:44:15;;;;;;;0.70;0.70;;;21.00;91.50;;;;;;5015576;28;20205;-77
2023/07/26 12:46:44;;;;;;;0.70;0.70;;;21.00;91.70;;;;;;4999482;28;20289;-77
2023/07/26 12:49:10;;;;;;;0.80;0.80;;;20.90;92.20;;;;;;5017168;28;20552;-78
2023/07/26 12:51:38;;;;;;;1.17;1.17;;;20.90;92.00;;;;;;5016812;28;20168;-75